CheckWX is a tool to help pilots better visualize weather data.  It is not intended as a substitute for an official pre-flight weather briefing.

14:49:12 UTC

AGGH TAF
Honiara International Airport
Honiara, Solomon Islands
TAF AGGH 231055Z 2312/2412 VRB03KT 9999 FEW016 SCT027 BKN100 INTER 2312/2319 5000 TSSH SCT015 FEW016CB BKN026 T 25 24 24 27 Q 1010 1008 1008 1010

Mar-23@
12:00 UTC

Mar-23 @ 12:00 UTC

Mar-24@
12:00 UTC

Mar-24 @ 12:00 UTC

TAF AGGH 231055Z 2312/2412 VRB03KT 9999 FEW016 SCT027 BKN100
Wind
  • Variable at 3 KTS
Cloud Levels
  • Few at 1,600' AGL
  • Scattered at 2,700' AGL
  • Broken at 10,000' AGL

Mar-23@
12:00 UTC

Mar-23 @ 12:00 UTC

Mar-23@
19:00 UTC

Mar-23 @ 19:00 UTC

INTER 2312/2319 5000 TSSH SCT015 FEW016CB BKN026 T 25 24 24 27 Q 1010 1008 1008 1010

Temporary

Temporary Changes expected for less than half the time period

Conditions
Thunderstorm
Cloud Levels
  • Scattered at 1,500' AGL
  • Few at 1,600' AGL
  • Broken at 2,600' AGL